createdAt,value
2022-08-29T00:01:11.610Z,99.90
2022-08-29T00:03:39.637Z,99.90
2022-08-29T00:06:07.984Z,99.90
2022-08-29T00:08:35.316Z,99.90
2022-08-29T00:11:02.536Z,99.90
2022-08-29T00:13:29.936Z,99.90
2022-08-29T00:15:56.790Z,99.90
2022-08-29T00:18:23.782Z,99.90
2022-08-29T00:20:51.324Z,99.90
2022-08-29T00:23:18.391Z,99.90
2022-08-29T00:25:45.938Z,99.90
2022-08-29T00:28:13.272Z,99.90
2022-08-29T00:30:41.686Z,99.90
2022-08-29T00:33:09.006Z,99.90
2022-08-29T00:35:40.637Z,99.90
2022-08-29T00:38:10.803Z,99.90
2022-08-29T00:40:51.454Z,99.90
2022-08-29T00:43:28.843Z,99.90
2022-08-29T00:46:46.561Z,99.90
2022-08-29T00:49:24.962Z,99.90
2022-08-29T00:51:53.566Z,99.90
2022-08-29T00:54:22.603Z,99.90
2022-08-29T00:56:53.313Z,99.90
2022-08-29T00:59:40.988Z,99.90
2022-08-29T01:02:11.245Z,99.90
2022-08-29T01:04:39.558Z,99.90
2022-08-29T01:07:09.196Z,99.90
2022-08-29T01:09:42.908Z,99.90
2022-08-29T01:12:16.665Z,99.90
2022-08-29T01:14:50.261Z,99.90
2022-08-29T01:17:33.744Z,99.90
2022-08-29T01:20:20.059Z,99.90
2022-08-29T01:23:39.092Z,99.90
2022-08-29T01:26:07.362Z,99.90
2022-08-29T01:28:45.820Z,99.90
2022-08-29T01:31:37.261Z,99.90
2022-08-29T01:34:12.046Z,99.90
2022-08-29T01:37:03.208Z,99.90
2022-08-29T01:39:41.540Z,99.90
2022-08-29T01:42:24.013Z,99.90
2022-08-29T01:44:58.771Z,99.90
2022-08-29T01:47:31.807Z,99.90
2022-08-29T01:49:58.659Z,99.90
2022-08-29T01:52:25.490Z,99.90
2022-08-29T01:54:52.362Z,99.90
2022-08-29T01:57:19.469Z,99.90
2022-08-29T01:59:47.505Z,99.90
2022-08-29T02:02:26.463Z,99.90
2022-08-29T02:04:56.311Z,99.90
2022-08-29T02:07:25.201Z,99.90
2022-08-29T02:09:53.173Z,99.90
2022-08-29T02:12:20.887Z,99.90
2022-08-29T02:14:50.603Z,99.90
2022-08-29T02:17:18.015Z,99.90
2022-08-29T02:19:45.965Z,99.90
2022-08-29T02:22:13.806Z,99.90
2022-08-29T02:24:42.019Z,99.90
2022-08-29T02:27:10.332Z,99.90
2022-08-29T02:29:38.491Z,99.90
2022-08-29T02:32:12.950Z,99.90
2022-08-29T02:34:44.750Z,99.90
2022-08-29T02:37:15.895Z,99.90
2022-08-29T02:39:42.812Z,99.90
2022-08-29T02:42:09.647Z,99.90
2022-08-29T02:44:37.933Z,99.90
2022-08-29T02:47:07.557Z,99.90
2022-08-29T02:49:34.603Z,99.90
2022-08-29T02:52:04.539Z,99.90
2022-08-29T02:54:31.313Z,99.90
2022-08-29T02:56:58.109Z,99.90
2022-08-29T02:59:24.900Z,99.90
2022-08-29T03:01:53.551Z,99.90
2022-08-29T03:04:20.496Z,99.90
2022-08-29T03:06:47.360Z,99.90
2022-08-29T03:09:14.218Z,99.90
2022-08-29T03:11:41.018Z,99.90
2022-08-29T03:14:08.280Z,99.90
2022-08-29T03:16:35.170Z,99.90
2022-08-29T03:19:02.263Z,99.90
2022-08-29T03:21:29.057Z,99.90
2022-08-29T03:23:56.505Z,99.90
2022-08-29T03:26:25.678Z,99.90
2022-08-29T03:28:52.970Z,99.90
2022-08-29T03:31:21.474Z,99.90
2022-08-29T03:33:48.805Z,99.90
2022-08-29T03:36:15.671Z,99.90
2022-08-29T03:38:46.457Z,99.90
2022-08-29T03:41:22.700Z,99.90
2022-08-29T03:43:49.925Z,99.90
2022-08-29T03:46:16.815Z,99.90
2022-08-29T03:48:43.843Z,99.90
2022-08-29T03:51:10.797Z,99.90
2022-08-29T03:53:37.573Z,99.90
2022-08-29T03:56:06.128Z,99.90
2022-08-29T03:58:34.257Z,99.90
2022-08-29T04:01:01.878Z,99.90
2022-08-29T04:03:31.478Z,99.90
2022-08-29T04:05:59.194Z,99.90
2022-08-29T04:08:28.164Z,99.90
2022-08-29T04:10:55.065Z,99.90
2022-08-29T04:13:21.953Z,99.90
2022-08-29T04:15:48.762Z,99.90
2022-08-29T04:18:15.917Z,99.90
2022-08-29T04:20:48.517Z,99.90
2022-08-29T04:23:15.797Z,99.90
2022-08-29T04:25:44.154Z,99.90
2022-08-29T04:28:14.671Z,99.90
2022-08-29T04:30:51.852Z,99.90
2022-08-29T04:33:23.495Z,99.90
2022-08-29T04:35:52.653Z,99.90
2022-08-29T04:38:20.510Z,99.90
2022-08-29T04:40:47.748Z,99.90
2022-08-29T04:43:14.866Z,99.90
2022-08-29T04:45:42.333Z,99.90
2022-08-29T04:48:10.980Z,99.90
2022-08-29T04:50:38.255Z,99.90
2022-08-29T04:53:05.199Z,99.90
2022-08-29T04:55:33.014Z,99.90
2022-08-29T04:58:00.220Z,99.90
2022-08-29T05:00:30.314Z,99.90
2022-08-29T05:02:58.293Z,99.90
2022-08-29T05:05:25.694Z,99.90
2022-08-29T05:07:52.511Z,99.90
2022-08-29T05:10:24.763Z,99.90
2022-08-29T05:12:51.605Z,99.90
2022-08-29T05:15:18.674Z,99.90
2022-08-29T05:17:45.910Z,99.90
2022-08-29T05:20:13.494Z,99.90
2022-08-29T05:22:42.137Z,99.90
2022-08-29T05:25:17.317Z,99.90
2022-08-29T05:27:45.731Z,99.90
2022-08-29T05:30:12.638Z,99.90
2022-08-29T05:32:39.456Z,99.90
2022-08-29T05:35:06.605Z,99.90
2022-08-29T05:37:33.787Z,99.90
2022-08-29T05:40:00.703Z,99.90
2022-08-29T05:42:27.615Z,99.90
2022-08-29T05:44:54.465Z,99.90
2022-08-29T05:47:21.569Z,99.90
2022-08-29T05:49:50.068Z,99.90
2022-08-29T05:52:20.848Z,99.90
2022-08-29T05:54:48.391Z,99.90
2022-08-29T05:57:19.933Z,99.90
2022-08-29T05:59:52.805Z,99.90
2022-08-29T06:02:22.485Z,99.90
2022-08-29T06:04:49.939Z,99.90
2022-08-29T06:07:16.721Z,99.90
2022-08-29T06:09:44.809Z,99.90
2022-08-29T06:12:15.419Z,99.90
2022-08-29T06:14:50.585Z,99.90
2022-08-29T06:17:18.386Z,99.90
2022-08-29T06:19:45.666Z,99.90
2022-08-29T06:22:12.898Z,99.90
2022-08-29T06:24:39.981Z,99.90
2022-08-29T06:27:12.911Z,99.90
2022-08-29T06:29:43.289Z,99.90
2022-08-29T06:32:12.379Z,99.90
2022-08-29T06:34:39.530Z,99.90
2022-08-29T06:37:06.438Z,99.90
2022-08-29T06:39:33.560Z,99.90
2022-08-29T06:42:00.503Z,99.90
2022-08-29T06:44:30.712Z,99.90
2022-08-29T06:46:58.722Z,99.90
2022-08-29T06:49:26.180Z,99.90
2022-08-29T06:51:57.661Z,99.90
2022-08-29T06:54:27.879Z,99.90
2022-08-29T06:56:56.775Z,99.90
2022-08-29T06:59:23.627Z,99.90
2022-08-29T07:01:50.650Z,99.90
2022-08-29T07:04:20.990Z,99.90
2022-08-29T07:06:48.921Z,99.90
2022-08-29T07:09:16.374Z,99.90
2022-08-29T07:11:43.584Z,99.90
2022-08-29T07:14:12.025Z,99.90
2022-08-29T07:16:40.215Z,99.90
2022-08-29T07:19:08.747Z,99.90
2022-08-29T07:21:36.856Z,99.90
2022-08-29T07:24:04.976Z,99.90
2022-08-29T07:26:36.986Z,99.90
2022-08-29T07:29:10.081Z,99.90
2022-08-29T07:31:39.341Z,99.90
2022-08-29T07:34:07.819Z,99.90
2022-08-29T07:36:35.512Z,99.90
2022-08-29T07:39:08.714Z,99.90
2022-08-29T07:41:37.844Z,99.90
2022-08-29T07:44:05.465Z,99.90
2022-08-29T07:46:32.477Z,99.90
2022-08-29T07:49:00.535Z,99.90
2022-08-29T07:51:29.099Z,99.90
2022-08-29T07:53:57.410Z,99.90
2022-08-29T07:56:28.609Z,99.90
2022-08-29T07:58:57.962Z,99.90
2022-08-29T08:01:25.878Z,99.90
2022-08-29T08:03:54.203Z,99.20
2022-08-29T08:06:27.353Z,97.60
2022-08-29T08:08:59.656Z,97.00
2022-08-29T08:11:27.551Z,96.40
2022-08-29T08:13:59.924Z,96.10
2022-08-29T08:16:29.457Z,94.90
2022-08-29T08:18:57.811Z,94.50
2022-08-29T08:21:26.353Z,93.90
2022-08-29T08:23:55.657Z,93.20
2022-08-29T08:26:23.465Z,93.10
2022-08-29T08:28:51.788Z,92.30
2022-08-29T08:31:20.686Z,92.10
2022-08-29T08:33:48.017Z,92.00
2022-08-29T08:36:17.695Z,91.80
2022-08-29T08:38:48.792Z,91.20
2022-08-29T08:41:27.606Z,91.40
2022-08-29T08:44:07.054Z,91.40
2022-08-29T08:46:38.795Z,90.50
2022-08-29T08:49:16.913Z,90.50
2022-08-29T08:51:53.076Z,91.10
2022-08-29T08:54:33.186Z,91.00
2022-08-29T08:57:12.622Z,91.20
2022-08-29T08:59:44.456Z,90.60
2022-08-29T09:02:54.512Z,90.70
2022-08-29T09:06:12.260Z,90.30
2022-08-29T09:09:10.229Z,90.20
2022-08-29T09:12:32.542Z,90.00
2022-08-29T09:15:22.292Z,88.70
2022-08-29T09:18:23.857Z,88.40
2022-08-29T09:20:56.918Z,87.90
2022-08-29T09:23:54.355Z,86.40
2022-08-29T09:26:24.155Z,84.90
2022-08-29T09:28:51.273Z,83.20
2022-08-29T09:31:22.845Z,81.40
2022-08-29T09:34:02.480Z,81.50
2022-08-29T09:36:48.434Z,82.20
2022-08-29T09:39:28.480Z,83.30
2022-08-29T09:42:14.001Z,85.30
2022-08-29T09:44:58.449Z,83.80
2022-08-29T09:47:29.813Z,82.60
2022-08-29T09:50:04.985Z,81.50
2022-08-29T09:52:32.189Z,80.60
2022-08-29T09:55:24.495Z,81.40
2022-08-29T09:58:07.789Z,80.80
2022-08-29T10:00:40.425Z,81.80
2022-08-29T10:03:18.867Z,80.00
2022-08-29T10:05:47.753Z,79.30
2022-08-29T10:09:10.908Z,79.50
2022-08-29T10:12:12.630Z,79.40
2022-08-29T10:15:02.271Z,78.60
2022-08-29T10:18:05.686Z,78.70
2022-08-29T10:21:18.326Z,79.50
2022-08-29T10:23:59.828Z,80.30
2022-08-29T10:27:04.409Z,81.20
2022-08-29T10:29:39.973Z,79.00
2022-08-29T10:32:39.580Z,78.70
2022-08-29T10:35:32.842Z,78.60
2022-08-29T10:38:10.324Z,79.80
2022-08-29T10:40:58.480Z,79.70
2022-08-29T10:43:40.193Z,79.90
2022-08-29T10:46:43.870Z,79.20
2022-08-29T10:49:36.514Z,79.60
2022-08-29T10:52:38.105Z,79.80
2022-08-29T10:55:18.922Z,80.60
2022-08-29T10:58:26.359Z,80.40
2022-08-29T11:01:09.412Z,79.70
2022-08-29T11:03:48.598Z,78.80
2022-08-29T11:06:26.707Z,79.50
2022-08-29T11:09:25.395Z,78.80
2022-08-29T11:12:23.909Z,78.40
2022-08-29T11:15:09.228Z,78.60
2022-08-29T11:17:40.935Z,78.00
2022-08-29T11:20:19.541Z,78.90
2022-08-29T11:23:27.571Z,76.50
2022-08-29T11:25:58.109Z,74.80
2022-08-29T11:28:52.583Z,75.30
2022-08-29T11:31:32.435Z,74.70
2022-08-29T11:34:39.331Z,73.80
2022-08-29T11:37:23.905Z,72.70
2022-08-29T11:40:48.807Z,72.80
2022-08-29T11:43:44.557Z,75.50
2022-08-29T11:46:53.461Z,73.10
2022-08-29T11:49:36.997Z,73.40
2022-08-29T11:52:22.318Z,73.00
2022-08-29T11:54:59.469Z,73.10
2022-08-29T11:57:45.695Z,72.30
2022-08-29T12:00:55.789Z,73.30
2022-08-29T12:03:44.861Z,72.60
2022-08-29T12:06:32.883Z,73.50
2022-08-29T12:09:14.616Z,73.10
2022-08-29T12:12:10.341Z,73.70
2022-08-29T12:14:49.195Z,74.70
2022-08-29T12:17:51.182Z,73.60
2022-08-29T12:20:35.563Z,73.60
2022-08-29T12:23:15.778Z,74.60
2022-08-29T12:25:55.218Z,74.50
2022-08-29T12:28:59.115Z,74.60
2022-08-29T12:32:32.594Z,74.80
2022-08-29T12:35:32.889Z,76.00
2022-08-29T12:38:42.032Z,75.30
2022-08-29T12:41:27.493Z,74.80
2022-08-29T12:44:01.273Z,74.80
2022-08-29T12:46:34.092Z,75.30
2022-08-29T12:49:27.520Z,75.70
2022-08-29T12:52:03.162Z,76.80
2022-08-29T12:54:46.036Z,77.30
2022-08-29T12:57:34.609Z,77.30
2022-08-29T13:00:08.338Z,77.70
2022-08-29T13:02:38.152Z,77.50
2022-08-29T13:05:23.407Z,78.20
2022-08-29T13:08:02.344Z,78.70
2022-08-29T13:10:30.137Z,78.60
2022-08-29T13:13:13.873Z,78.90
2022-08-29T13:15:41.460Z,79.20
2022-08-29T13:18:16.391Z,79.50
2022-08-29T13:21:03.176Z,79.80
2022-08-29T13:24:11.277Z,79.70
2022-08-29T13:27:06.459Z,80.40
2022-08-29T13:29:37.730Z,80.10
2022-08-29T13:32:26.878Z,80.30
2022-08-29T13:35:06.227Z,80.10
2022-08-29T13:37:39.082Z,79.70
2022-08-29T13:40:31.884Z,80.00
2022-08-29T13:43:01.140Z,79.90
2022-08-29T13:45:28.810Z,80.10
2022-08-29T13:48:15.550Z,80.00
2022-08-29T13:50:42.351Z,79.80
2022-08-29T13:53:09.311Z,80.10
2022-08-29T13:55:36.626Z,80.30
2022-08-29T13:58:04.464Z,80.30
2022-08-29T14:00:35.384Z,80.40
2022-08-29T14:03:06.335Z,80.30
2022-08-29T14:05:35.209Z,80.90
2022-08-29T14:08:05.524Z,80.70
2022-08-29T14:10:32.537Z,80.60
2022-08-29T14:12:59.600Z,81.60
2022-08-29T14:15:26.674Z,80.90
2022-08-29T14:17:56.886Z,81.40
2022-08-29T14:20:42.724Z,80.70
2022-08-29T14:23:09.669Z,81.00
2022-08-29T14:25:36.456Z,81.20
2022-08-29T14:28:04.057Z,81.20
2022-08-29T14:30:31.037Z,81.20
2022-08-29T14:32:57.816Z,81.50
2022-08-29T14:35:26.442Z,81.10
2022-08-29T14:38:00.195Z,81.10
2022-08-29T14:40:28.797Z,81.50
2022-08-29T14:42:57.222Z,81.70
2022-08-29T14:45:24.360Z,81.80
2022-08-29T14:47:51.522Z,81.50
2022-08-29T14:50:18.910Z,81.80
2022-08-29T14:52:46.065Z,81.80
2022-08-29T14:55:14.153Z,81.80
2022-08-29T14:57:49.560Z,81.60
2022-08-29T15:00:27.937Z,81.70
2022-08-29T15:02:55.276Z,81.50
2022-08-29T15:05:22.496Z,82.00
2022-08-29T15:07:49.986Z,82.00
2022-08-29T15:13:17.502Z,81.50
2022-08-29T15:15:44.429Z,81.30
2022-08-29T15:19:31.595Z,81.50
2022-08-29T15:21:25.938Z,81.00
2022-08-29T15:23:53.611Z,81.00
2022-08-29T15:26:24.142Z,81.50
2022-08-29T15:28:51.134Z,81.10
2022-08-29T15:31:18.067Z,81.20
2022-08-29T15:33:44.907Z,81.40
2022-08-29T15:36:11.747Z,81.40
2022-08-29T15:38:38.734Z,81.50
2022-08-29T15:41:05.749Z,81.60
2022-08-29T15:43:32.544Z,81.40
2022-08-29T15:46:02.832Z,81.20
2022-08-29T15:48:30.940Z,81.10
2022-08-29T15:51:04.449Z,81.40
2022-08-29T15:53:31.357Z,81.70
2022-08-29T15:55:58.562Z,81.70
2022-08-29T15:58:25.396Z,82.00
2022-08-29T16:00:56.200Z,81.50
2022-08-29T16:03:23.132Z,81.00
2022-08-29T16:05:49.955Z,81.00
2022-08-29T16:08:17.633Z,81.30
2022-08-29T16:10:46.427Z,81.70
2022-08-29T16:13:13.248Z,81.50
2022-08-29T16:15:40.465Z,81.20
2022-08-29T16:18:07.532Z,81.30
2022-08-29T16:20:37.987Z,81.70
2022-08-29T16:23:05.957Z,81.60
2022-08-29T16:25:33.938Z,81.20
2022-08-29T16:28:03.509Z,81.50
2022-08-29T16:30:33.639Z,81.70
2022-08-29T16:33:01.634Z,81.30
2022-08-29T16:35:28.468Z,81.60
2022-08-29T16:38:02.469Z,81.30
2022-08-29T16:40:34.232Z,81.00
2022-08-29T16:43:03.954Z,81.00
2022-08-29T16:45:32.598Z,81.30
2022-08-29T16:47:59.837Z,81.50
2022-08-29T16:50:28.129Z,81.60
2022-08-29T16:52:55.683Z,80.90
2022-08-29T16:55:22.672Z,80.70
2022-08-29T16:58:08.254Z,80.60
2022-08-29T17:00:35.191Z,80.50
2022-08-29T17:03:02.700Z,80.70
2022-08-29T17:05:30.537Z,81.00
2022-08-29T17:07:57.383Z,80.90
2022-08-29T17:10:24.126Z,81.50
2022-08-29T17:12:51.030Z,81.20
2022-08-29T17:15:17.813Z,81.30
2022-08-29T17:17:45.210Z,81.20
2022-08-29T17:20:12.895Z,81.00
2022-08-29T17:22:39.808Z,81.30
2022-08-29T17:25:07.682Z,82.20
2022-08-29T17:27:34.489Z,81.80
2022-08-29T17:30:03.788Z,81.50
2022-08-29T17:32:30.975Z,81.80
2022-08-29T17:34:57.744Z,81.80
2022-08-29T17:37:24.540Z,81.80
2022-08-29T17:39:51.390Z,82.00
2022-08-29T17:42:18.198Z,82.80
2022-08-29T17:44:46.853Z,82.70
2022-08-29T17:47:13.694Z,82.70
2022-08-29T17:49:40.602Z,82.70
2022-08-29T17:52:07.703Z,83.10
2022-08-29T17:54:34.862Z,83.90
2022-08-29T17:57:02.090Z,84.20
2022-08-29T17:59:34.476Z,83.90
2022-08-29T18:02:02.705Z,83.50
2022-08-29T18:04:29.741Z,83.90
2022-08-29T18:06:57.811Z,84.10
2022-08-29T18:09:25.517Z,84.60
2022-08-29T18:11:54.362Z,85.30
2022-08-29T18:14:24.077Z,85.40
2022-08-29T18:17:05.838Z,86.40
2022-08-29T18:19:34.902Z,86.20
2022-08-29T18:22:02.324Z,86.40
2022-08-29T18:24:29.179Z,86.90
2022-08-29T18:26:56.036Z,86.50
2022-08-29T18:29:32.682Z,86.60
2022-08-29T18:32:00.876Z,87.10
2022-08-29T18:34:30.489Z,87.60
2022-08-29T18:37:23.230Z,87.50
2022-08-29T18:39:50.832Z,87.50
2022-08-29T18:42:40.082Z,87.80
2022-08-29T18:45:09.178Z,88.30
2022-08-29T18:47:37.165Z,88.00
2022-08-29T18:50:26.017Z,88.30
2022-08-29T18:53:04.443Z,88.40
2022-08-29T18:55:56.316Z,88.10
2022-08-29T18:58:33.500Z,87.80
2022-08-29T19:01:12.124Z,88.30
2022-08-29T19:03:40.240Z,88.60
2022-08-29T19:06:07.464Z,88.80
2022-08-29T19:08:38.067Z,89.30
2022-08-29T19:11:13.797Z,89.30
2022-08-29T19:13:41.577Z,89.40
2022-08-29T19:16:17.433Z,89.30
2022-08-29T19:18:48.521Z,89.60
2022-08-29T19:21:16.247Z,89.90
2022-08-29T19:23:51.957Z,89.60
2022-08-29T19:26:52.531Z,90.00
2022-08-29T19:29:19.682Z,90.20
2022-08-29T19:31:46.655Z,90.40
2022-08-29T19:34:13.842Z,90.50
2022-08-29T19:36:42.916Z,90.50
2022-08-29T19:39:13.934Z,90.60
2022-08-29T19:41:40.681Z,90.70
2022-08-29T19:44:09.085Z,90.80
2022-08-29T19:46:41.205Z,91.10
2022-08-29T19:49:20.268Z,90.90
2022-08-29T19:52:00.439Z,90.70
2022-08-29T19:54:29.102Z,90.80
2022-08-29T19:57:24.557Z,91.10
2022-08-29T19:59:57.435Z,91.30
2022-08-29T20:02:26.930Z,91.20
2022-08-29T20:04:54.395Z,91.10
2022-08-29T20:07:21.425Z,91.50
2022-08-29T20:09:49.188Z,92.30
2022-08-29T20:12:16.259Z,92.10
2022-08-29T20:14:43.355Z,92.00
2022-08-29T20:17:11.651Z,92.30
2022-08-29T20:19:39.622Z,92.30
2022-08-29T20:22:07.154Z,92.60
2022-08-29T20:24:34.871Z,92.60
2022-08-29T20:27:03.442Z,93.10
2022-08-29T20:29:31.919Z,93.10
2022-08-29T20:32:17.711Z,93.40
2022-08-29T20:34:45.282Z,93.30
2022-08-29T20:37:14.115Z,93.30
2022-08-29T20:39:46.405Z,93.70
2022-08-29T20:42:21.338Z,93.90
2022-08-29T20:44:48.519Z,94.10
2022-08-29T20:47:19.710Z,94.10
2022-08-29T20:49:49.151Z,94.10
2022-08-29T20:52:19.808Z,94.10
2022-08-29T20:54:47.868Z,93.90
2022-08-29T20:57:15.104Z,93.30
2022-08-29T20:59:42.971Z,94.00
2022-08-29T21:02:10.932Z,94.10
2022-08-29T21:04:57.440Z,94.10
2022-08-29T21:07:25.477Z,94.20
2022-08-29T21:10:07.988Z,93.70
2022-08-29T21:12:37.822Z,94.20
2022-08-29T21:15:05.900Z,94.40
2022-08-29T21:17:36.332Z,93.90
2022-08-29T21:20:04.294Z,94.10
2022-08-29T21:22:34.895Z,94.40
2022-08-29T21:25:02.796Z,94.50
2022-08-29T21:27:30.838Z,94.90
2022-08-29T21:29:58.667Z,94.70
2022-08-29T21:32:29.232Z,95.00
2022-08-29T21:34:56.068Z,95.20
2022-08-29T21:37:24.450Z,95.00
2022-08-29T21:39:51.266Z,95.30
2022-08-29T21:42:18.375Z,95.00
2022-08-29T21:44:45.188Z,95.60
2022-08-29T21:47:14.824Z,95.60
2022-08-29T21:49:44.437Z,95.30
2022-08-29T21:52:11.363Z,95.50
2022-08-29T21:54:38.154Z,95.50
2022-08-29T21:57:05.128Z,95.50
2022-08-29T21:59:32.585Z,95.00
2022-08-29T22:01:59.433Z,95.00
2022-08-29T22:04:28.430Z,94.80
2022-08-29T22:06:57.478Z,94.70
2022-08-29T22:09:25.548Z,94.80
2022-08-29T22:11:52.304Z,94.90
2022-08-29T22:14:19.121Z,94.90
2022-08-29T22:16:45.963Z,94.80
2022-08-29T22:19:16.670Z,95.30
2022-08-29T22:21:51.749Z,95.30
2022-08-29T22:24:18.924Z,95.60
2022-08-29T22:26:46.627Z,95.80
2022-08-29T22:29:15.884Z,95.60
2022-08-29T22:31:44.718Z,95.90
2022-08-29T22:34:14.744Z,95.70
2022-08-29T22:36:41.872Z,96.10
2022-08-29T22:39:10.166Z,96.10
2022-08-29T22:41:37.602Z,95.90
2022-08-29T22:46:54.139Z,95.80
2022-08-29T22:49:21.207Z,96.10
2022-08-29T22:51:48.928Z,96.20
2022-08-29T22:54:34.399Z,96.80
2022-08-29T22:57:04.395Z,97.20
2022-08-29T22:59:32.386Z,97.50
2022-08-29T23:02:01.277Z,97.40
2022-08-29T23:04:29.941Z,98.10
2022-08-29T23:06:57.423Z,98.40
2022-08-29T23:09:24.522Z,98.50
2022-08-29T23:11:51.819Z,98.10
2022-08-29T23:14:20.810Z,97.90
2022-08-29T23:16:48.604Z,98.40
2022-08-29T23:19:16.048Z,98.20
2022-08-29T23:21:43.695Z,97.80
2022-08-29T23:24:10.471Z,98.10
2022-08-29T23:26:37.384Z,98.60
2022-08-29T23:29:05.147Z,98.60
2022-08-29T23:31:32.201Z,98.90
2022-08-29T23:33:58.994Z,98.80
2022-08-29T23:36:25.835Z,98.40
2022-08-29T23:38:52.847Z,98.70
2022-08-29T23:41:20.019Z,99.10
2022-08-29T23:43:46.774Z,99.20
2022-08-29T23:46:13.635Z,99.90
2022-08-29T23:48:40.656Z,99.90
2022-08-29T23:51:10.761Z,99.90
2022-08-29T23:53:38.441Z,99.90
2022-08-29T23:56:17.116Z,99.90
2022-08-29T23:58:43.872Z,99.90
